createdAt,value
2022-08-05T00:01:35.853Z,16.97
2022-08-05T00:04:16.344Z,16.94
2022-08-05T00:06:44.552Z,16.94
2022-08-05T00:09:19.654Z,16.93
2022-08-05T00:11:55.875Z,16.81
2022-08-05T00:14:29.218Z,16.59
2022-08-05T00:17:01.722Z,16.65
2022-08-05T00:19:33.683Z,16.47
2022-08-05T00:22:12.089Z,16.37
2022-08-05T00:24:42.366Z,16.33
2022-08-05T00:27:16.778Z,16.35
2022-08-05T00:29:45.542Z,16.25
2022-08-05T00:32:15.418Z,16.17
2022-08-05T00:35:03.713Z,16.19
2022-08-05T00:37:51.358Z,16.01
2022-08-05T00:40:28.241Z,15.99
2022-08-05T00:42:59.569Z,15.98
2022-08-05T00:45:38.848Z,15.93
2022-08-05T00:48:12.067Z,15.95
2022-08-05T00:50:42.025Z,15.84
2022-08-05T00:54:01.063Z,15.86
2022-08-05T00:56:01.482Z,15.85
2022-08-05T00:58:29.569Z,15.91
2022-08-05T01:00:57.574Z,15.95
2022-08-05T01:03:30.940Z,15.94
2022-08-05T01:06:05.512Z,15.96
2022-08-05T01:08:43.408Z,15.91
2022-08-05T01:11:22.100Z,15.83
2022-08-05T01:14:03.842Z,15.81
2022-08-05T01:16:48.500Z,15.78
2022-08-05T01:19:57.058Z,15.70
2022-08-05T01:22:30.814Z,15.69
2022-08-05T01:25:39.764Z,15.60
2022-08-05T01:28:28.585Z,15.58
2022-08-05T01:31:03.019Z,15.55
2022-08-05T01:33:35.954Z,15.43
2022-08-05T01:36:13.041Z,15.39
2022-08-05T01:38:49.629Z,15.42
2022-08-05T01:41:22.097Z,15.37
2022-08-05T01:43:53.280Z,15.35
2022-08-05T01:46:42.352Z,15.38
2022-08-05T01:49:23.157Z,15.41
2022-08-05T01:51:55.130Z,15.55
2022-08-05T01:54:27.435Z,15.60
2022-08-05T01:58:11.255Z,15.68
2022-08-05T01:59:48.762Z,15.70
2022-08-05T02:02:19.559Z,15.68
2022-08-05T02:04:57.981Z,15.63
2022-08-05T02:07:26.281Z,15.71
2022-08-05T02:09:58.910Z,15.72
2022-08-05T02:12:35.378Z,15.62
2022-08-05T02:15:12.254Z,15.53
2022-08-05T02:18:33.179Z,15.45
2022-08-05T02:20:46.950Z,15.31
2022-08-05T02:23:16.908Z,15.30
2022-08-05T02:25:49.079Z,15.26
2022-08-05T02:28:29.297Z,15.31
2022-08-05T02:31:04.145Z,15.33
2022-08-05T02:33:38.794Z,15.37
2022-08-05T02:36:13.550Z,15.38
2022-08-05T02:38:52.950Z,15.39
2022-08-05T02:41:28.322Z,15.38
2022-08-05T02:44:11.903Z,15.40
2022-08-05T02:46:53.779Z,15.38
2022-08-05T02:49:36.586Z,15.42
2022-08-05T02:52:11.431Z,15.37
2022-08-05T02:54:51.144Z,15.24
2022-08-05T02:58:10.505Z,15.19
2022-08-05T03:00:13.252Z,15.17
2022-08-05T03:02:44.857Z,15.07
2022-08-05T03:05:14.717Z,15.03
2022-08-05T03:08:01.112Z,15.03
2022-08-05T03:10:32.181Z,15.00
2022-08-05T03:15:28.421Z,15.14
2022-08-05T03:17:58.121Z,15.19
2022-08-05T03:20:27.819Z,15.23
2022-08-05T03:22:57.770Z,15.25
2022-08-05T03:25:33.700Z,15.22
2022-08-05T03:28:18.519Z,15.19
2022-08-05T03:30:48.703Z,15.09
2022-08-05T03:33:18.893Z,14.96
2022-08-05T03:35:48.358Z,14.90
2022-08-05T03:38:17.911Z,14.84
2022-08-05T03:41:03.996Z,14.75
2022-08-05T03:44:08.433Z,14.86
2022-08-05T03:46:29.946Z,14.89
2022-08-05T03:49:01.862Z,14.85
2022-08-05T03:52:49.112Z,14.81
2022-08-05T03:55:54.776Z,14.81
2022-08-05T03:57:21.754Z,14.72
2022-08-05T04:00:12.358Z,14.87
2022-08-05T04:02:58.019Z,14.85
2022-08-05T04:05:33.843Z,14.94
2022-08-05T04:08:05.538Z,14.94
2022-08-05T04:10:38.368Z,15.07
2022-08-05T04:13:07.911Z,15.22
2022-08-05T04:15:36.092Z,15.33
2022-08-05T04:18:06.805Z,15.43
2022-08-05T04:20:37.209Z,15.56
2022-08-05T04:23:05.305Z,15.64
2022-08-05T04:25:57.458Z,15.67
2022-08-05T04:28:30.640Z,15.76
2022-08-05T04:31:00.971Z,15.77
2022-08-05T04:33:54.924Z,15.86
2022-08-05T04:36:49.626Z,15.93
2022-08-05T04:39:08.116Z,16.12
2022-08-05T04:41:37.275Z,16.19
2022-08-05T04:44:08.969Z,16.30
2022-08-05T04:46:38.727Z,16.42
2022-08-05T04:49:12.352Z,16.48
2022-08-05T04:51:45.178Z,16.59
2022-08-05T04:54:14.549Z,16.66
2022-08-05T04:56:42.546Z,16.81
2022-08-05T04:59:22.315Z,16.89
2022-08-05T05:02:08.031Z,17.04
2022-08-05T05:04:44.187Z,17.15
2022-08-05T05:07:18.117Z,17.24
2022-08-05T05:09:46.658Z,17.37
2022-08-05T05:12:14.946Z,17.55
2022-08-05T05:14:50.846Z,17.61
2022-08-05T05:17:23.727Z,17.70
2022-08-05T05:19:54.521Z,17.80
2022-08-05T05:22:26.125Z,17.87
2022-08-05T05:24:58.466Z,17.96
2022-08-05T05:27:38.460Z,18.08
2022-08-05T05:30:15.567Z,18.14
2022-08-05T05:33:00.455Z,18.30
2022-08-05T05:35:34.437Z,18.41
2022-08-05T05:38:09.488Z,18.55
2022-08-05T05:40:50.029Z,18.65
2022-08-05T05:43:21.858Z,18.75
2022-08-05T05:45:55.542Z,18.89
2022-08-05T05:48:27.533Z,18.98
2022-08-05T05:50:55.729Z,19.07
2022-08-05T05:53:24.846Z,19.18
2022-08-05T05:56:01.299Z,19.25
2022-08-05T05:58:32.209Z,19.32
2022-08-05T06:01:13.135Z,19.31
2022-08-05T06:04:01.581Z,19.37
2022-08-05T06:06:33.199Z,19.44
2022-08-05T06:09:05.631Z,19.55
2022-08-05T06:11:39.334Z,19.81
2022-08-05T06:14:07.429Z,19.96
2022-08-05T06:16:37.129Z,20.25
2022-08-05T06:19:07.589Z,20.37
2022-08-05T06:21:38.667Z,20.36
2022-08-05T06:24:12.721Z,20.52
2022-08-05T06:26:51.227Z,20.68
2022-08-05T06:29:25.007Z,20.77
2022-08-05T06:32:24.958Z,20.99
2022-08-05T06:34:58.430Z,21.09
2022-08-05T06:37:56.586Z,21.20
2022-08-05T06:40:18.193Z,21.16
2022-08-05T06:42:52.092Z,21.24
2022-08-05T06:45:44.379Z,21.27
2022-08-05T06:48:36.840Z,21.52
2022-08-05T06:50:58.373Z,21.55
2022-08-05T06:53:29.138Z,21.50
2022-08-05T06:56:00.303Z,21.56
2022-08-05T06:58:35.082Z,21.58
2022-08-05T07:01:06.321Z,21.58
2022-08-05T07:03:35.009Z,21.69
2022-08-05T07:06:05.946Z,21.82
2022-08-05T07:08:47.998Z,21.99
2022-08-05T07:11:22.620Z,22.09
2022-08-05T07:14:20.116Z,22.04
2022-08-05T07:18:01.693Z,22.22
2022-08-05T07:22:30.106Z,22.38
2022-08-05T07:25:22.663Z,22.57
2022-08-05T07:27:59.589Z,22.81
2022-08-05T07:30:34.285Z,23.13
2022-08-05T07:33:08.866Z,23.33
2022-08-05T07:36:02.996Z,23.64
2022-08-05T07:38:33.599Z,23.89
2022-08-05T07:42:07.742Z,24.02
2022-08-05T07:43:56.285Z,24.11
2022-08-05T07:46:26.285Z,23.95
2022-08-05T07:49:03.615Z,24.17
2022-08-05T07:51:36.714Z,24.39
2022-08-05T07:54:10.415Z,24.54
2022-08-05T07:57:01.627Z,24.67
2022-08-05T07:59:38.908Z,24.78
2022-08-05T08:02:16.105Z,24.92
2022-08-05T08:04:49.848Z,25.15
2022-08-05T08:07:18.908Z,25.25
2022-08-05T08:09:52.326Z,25.45
2022-08-05T08:12:33.409Z,25.59
2022-08-05T08:15:15.725Z,25.78
2022-08-05T08:17:50.638Z,26.02
2022-08-05T08:20:59.728Z,25.92
2022-08-05T08:24:00.377Z,26.06
2022-08-05T08:26:00.698Z,26.12
2022-08-05T08:28:36.155Z,26.21
2022-08-05T08:31:07.191Z,26.36
2022-08-05T08:33:37.950Z,26.51
2022-08-05T08:38:57.371Z,26.71
2022-08-05T08:41:51.914Z,26.81
2022-08-05T08:45:20.311Z,26.77
2022-08-05T08:47:47.725Z,26.92
2022-08-05T08:50:12.900Z,27.11
2022-08-05T08:52:51.806Z,27.28
2022-08-05T08:56:02.163Z,27.07
2022-08-05T08:58:13.206Z,27.04
2022-08-05T09:00:44.350Z,27.06
2022-08-05T09:03:16.249Z,27.30
2022-08-05T09:06:09.273Z,27.39
2022-08-05T09:08:40.295Z,27.41
2022-08-05T09:11:13.579Z,27.35
2022-08-05T09:14:09.701Z,27.51
2022-08-05T09:16:31.756Z,27.42
2022-08-05T09:19:00.893Z,27.44
2022-08-05T09:22:23.490Z,27.55
2022-08-05T09:24:23.243Z,27.64
2022-08-05T09:26:54.088Z,27.80
2022-08-05T09:29:30.908Z,28.14
2022-08-05T09:32:46.311Z,28.13
2022-08-05T09:34:55.020Z,28.27
2022-08-05T09:38:16.564Z,28.44
2022-08-05T09:40:30.533Z,28.72
2022-08-05T09:43:02.091Z,29.12
2022-08-05T09:46:06.378Z,29.43
2022-08-05T09:48:27.099Z,29.65
2022-08-05T09:50:59.794Z,29.94
2022-08-05T09:53:53.127Z,30.07
2022-08-05T09:56:26.296Z,30.06
2022-08-05T09:58:58.807Z,30.27
2022-08-05T10:01:31.874Z,30.12
2022-08-05T10:04:10.353Z,29.94
2022-08-05T10:06:41.441Z,29.83
2022-08-05T10:09:28.262Z,29.78
2022-08-05T10:12:18.974Z,30.10
2022-08-05T10:15:17.068Z,30.42
2022-08-05T10:17:54.447Z,30.71
2022-08-05T10:20:26.424Z,30.85
2022-08-05T10:22:56.113Z,30.68
2022-08-05T10:25:26.762Z,30.51
2022-08-05T10:28:12.961Z,30.90
2022-08-05T10:32:54.723Z,30.52
2022-08-05T10:33:34.285Z,30.59
2022-08-05T10:36:05.716Z,30.93
2022-08-05T10:38:37.937Z,31.31
2022-08-05T10:41:23.232Z,31.66
2022-08-05T10:43:59.215Z,32.12
2022-08-05T10:46:44.932Z,32.47
2022-08-05T10:49:16.643Z,32.48
2022-08-05T10:51:57.469Z,32.38
2022-08-05T10:54:57.046Z,32.70
2022-08-05T10:57:33.722Z,32.16
2022-08-05T11:00:19.047Z,31.89
2022-08-05T11:03:23.805Z,32.43
2022-08-05T11:06:15.792Z,32.28
2022-08-05T11:09:31.950Z,31.91
2022-08-05T11:12:50.784Z,32.08
2022-08-05T11:15:59.995Z,32.66
2022-08-05T11:18:29.944Z,32.38
2022-08-05T11:21:02.746Z,32.62
2022-08-05T11:24:05.537Z,32.75
2022-08-05T11:26:28.129Z,33.16
2022-08-05T11:29:05.152Z,33.61
2022-08-05T11:31:54.172Z,33.11
2022-08-05T11:34:37.770Z,33.72
2022-08-05T11:38:28.065Z,34.05
2022-08-05T11:40:00.535Z,34.43
2022-08-05T11:42:38.108Z,34.84
2022-08-05T11:45:23.418Z,34.98
2022-08-05T11:47:59.323Z,35.25
2022-08-05T11:50:27.249Z,35.40
2022-08-05T11:52:58.275Z,35.02
2022-08-05T11:55:31.574Z,34.75
2022-08-05T11:58:09.151Z,34.91
2022-08-05T12:00:44.408Z,35.49
2022-08-05T12:03:23.888Z,35.58
2022-08-05T12:06:03.083Z,35.47
2022-08-05T12:08:33.429Z,35.52
2022-08-05T12:11:06.241Z,35.44
2022-08-05T12:13:49.535Z,34.96
2022-08-05T12:16:26.939Z,35.73
2022-08-05T12:18:55.613Z,35.92
2022-08-05T12:21:26.746Z,36.38
2022-08-05T12:24:04.810Z,36.85
2022-08-05T12:26:36.953Z,35.87
2022-08-05T12:29:09.863Z,35.62
2022-08-05T12:31:53.492Z,35.83
2022-08-05T12:34:25.792Z,34.59
2022-08-05T12:36:55.997Z,34.53
2022-08-05T12:39:34.587Z,34.52
2022-08-05T12:42:14.726Z,35.18
2022-08-05T12:44:44.490Z,34.67
2022-08-05T12:47:17.088Z,35.30
2022-08-05T12:50:03.895Z,35.43
2022-08-05T12:52:38.904Z,36.15
2022-08-05T12:55:22.689Z,36.32
2022-08-05T12:58:38.786Z,36.73
2022-08-05T13:02:02.435Z,37.19
2022-08-05T13:03:38.908Z,37.45
2022-08-05T13:06:12.897Z,37.09
2022-08-05T13:08:41.612Z,37.07
2022-08-05T13:11:59.740Z,37.26
2022-08-05T13:14:19.510Z,37.75
2022-08-05T13:16:56.549Z,37.99
2022-08-05T13:19:52.120Z,38.36
2022-08-05T13:22:27.746Z,38.38
2022-08-05T13:25:05.272Z,38.51
2022-08-05T13:27:38.299Z,38.51
2022-08-05T13:30:33.862Z,38.68
2022-08-05T13:32:56.732Z,38.70
2022-08-05T13:35:47.317Z,38.75
2022-08-05T13:38:20.432Z,38.92
2022-08-05T13:40:58.576Z,38.84
2022-08-05T13:43:44.916Z,38.99
2022-08-05T13:46:16.131Z,37.78
2022-08-05T13:48:58.613Z,37.21
2022-08-05T13:51:40.085Z,37.70
2022-08-05T13:54:11.847Z,36.48
2022-08-05T13:56:45.252Z,36.31
2022-08-05T13:59:21.021Z,35.70
2022-08-05T14:01:56.770Z,35.74
2022-08-05T14:04:49.738Z,36.34
2022-08-05T14:07:26.538Z,36.81
2022-08-05T14:10:10.829Z,35.59
2022-08-05T14:12:39.534Z,35.69
2022-08-05T14:16:04.602Z,35.33
2022-08-05T14:17:59.894Z,35.55
2022-08-05T14:20:29.615Z,35.81
2022-08-05T14:22:59.507Z,35.61
2022-08-05T14:25:30.254Z,36.13
2022-08-05T14:27:58.860Z,36.55
2022-08-05T14:30:28.183Z,36.98
2022-08-05T14:32:57.199Z,37.00
2022-08-05T14:35:36.916Z,37.18
2022-08-05T14:38:31.987Z,37.11
2022-08-05T14:41:01.195Z,36.84
2022-08-05T14:43:57.753Z,36.74
2022-08-05T14:46:17.131Z,35.97
2022-08-05T14:48:49.871Z,35.41
2022-08-05T14:51:18.141Z,35.68
2022-08-05T14:54:06.763Z,35.62
2022-08-05T14:56:44.182Z,35.57
2022-08-05T14:59:15.177Z,36.08
2022-08-05T15:01:48.262Z,36.19
2022-08-05T15:04:20.590Z,36.88
2022-08-05T15:06:50.260Z,36.81
2022-08-05T15:09:52.194Z,36.54
2022-08-05T15:12:11.535Z,36.67
2022-08-05T15:14:50.146Z,37.26
2022-08-05T15:17:46.257Z,37.35
2022-08-05T15:20:17.072Z,37.24
2022-08-05T15:22:54.153Z,37.50
2022-08-05T15:25:51.285Z,37.69
2022-08-05T15:28:15.738Z,38.22
2022-08-05T15:30:45.863Z,38.50
2022-08-05T15:33:56.820Z,38.32
2022-08-05T15:36:04.024Z,38.46
2022-08-05T15:38:35.361Z,38.16
2022-08-05T15:41:21.833Z,38.24
2022-08-05T15:43:54.752Z,38.30
2022-08-05T15:46:25.130Z,38.56
2022-08-05T15:49:01.401Z,38.34
2022-08-05T15:52:04.199Z,38.01
2022-08-05T15:54:34.345Z,37.82
2022-08-05T15:57:07.415Z,37.88
2022-08-05T15:59:36.233Z,37.42
2022-08-05T16:02:09.477Z,37.45
2022-08-05T16:04:42.666Z,37.66
2022-08-05T16:07:11.540Z,37.75
2022-08-05T16:09:42.079Z,37.80
2022-08-05T16:12:13.006Z,37.41
2022-08-05T16:14:43.186Z,37.48
2022-08-05T16:17:11.543Z,37.40
2022-08-05T16:20:04.617Z,36.99
2022-08-05T16:22:33.936Z,36.55
2022-08-05T16:25:08.042Z,36.50
2022-08-05T16:28:00.942Z,36.56
2022-08-05T16:30:29.215Z,36.42
2022-08-05T16:32:57.465Z,36.23
2022-08-05T16:35:28.592Z,36.02
2022-08-05T16:38:16.768Z,35.72
2022-08-05T16:40:55.415Z,35.01
2022-08-05T16:43:31.420Z,34.37
2022-08-05T16:46:04.249Z,34.05
2022-08-05T16:48:37.825Z,33.92
2022-08-05T16:51:10.114Z,33.86
2022-08-05T16:54:06.103Z,33.80
2022-08-05T16:56:29.968Z,34.05
2022-08-05T16:59:01.870Z,34.04
2022-08-05T17:01:52.705Z,34.27
2022-08-05T17:04:26.176Z,34.26
2022-08-05T17:06:57.069Z,34.24
2022-08-05T17:09:29.612Z,34.25
2022-08-05T17:11:59.717Z,34.24
2022-08-05T17:14:34.554Z,34.15
2022-08-05T17:17:14.372Z,34.01
2022-08-05T17:19:45.296Z,33.68
2022-08-05T17:22:24.544Z,33.35
2022-08-05T17:24:57.992Z,32.90
2022-08-05T17:27:33.664Z,32.14
2022-08-05T17:30:11.935Z,31.94
2022-08-05T17:32:42.209Z,31.77
2022-08-05T17:35:12.321Z,31.51
2022-08-05T17:37:45.395Z,31.15
2022-08-05T17:40:18.507Z,31.06
2022-08-05T17:42:53.500Z,30.63
2022-08-05T17:45:37.935Z,30.37
2022-08-05T17:48:07.851Z,30.27
2022-08-05T17:50:36.522Z,30.12
2022-08-05T17:53:08.445Z,29.98
2022-08-05T17:55:39.707Z,29.76
2022-08-05T17:58:11.192Z,29.61
2022-08-05T18:00:47.239Z,29.23
2022-08-05T18:03:56.304Z,28.89
2022-08-05T18:06:12.034Z,28.79
2022-08-05T18:08:44.163Z,28.45
2022-08-05T18:11:23.996Z,28.06
2022-08-05T18:13:54.559Z,28.07
2022-08-05T18:16:24.935Z,27.84
2022-08-05T18:18:52.749Z,27.87
2022-08-05T18:21:22.896Z,27.65
2022-08-05T18:23:54.595Z,27.40
2022-08-05T18:26:29.224Z,27.35
2022-08-05T18:28:58.100Z,27.15
2022-08-05T18:31:33.140Z,26.97
2022-08-05T18:34:05.792Z,26.75
2022-08-05T18:36:35.183Z,26.69
2022-08-05T18:39:03.332Z,26.60
2022-08-05T18:41:53.561Z,26.69
2022-08-05T18:44:32.959Z,26.70
2022-08-05T18:47:03.783Z,26.58
2022-08-05T18:49:58.291Z,26.43
2022-08-05T18:52:35.837Z,26.23
2022-08-05T18:55:06.549Z,26.02
2022-08-05T18:57:50.333Z,25.96
2022-08-05T19:00:28.640Z,25.88
2022-08-05T19:03:03.621Z,25.79
2022-08-05T19:06:12.601Z,25.92
2022-08-05T19:08:30.786Z,25.85
2022-08-05T19:11:04.552Z,25.80
2022-08-05T19:13:36.037Z,25.70
2022-08-05T19:16:05.413Z,25.72
2022-08-05T19:18:56.760Z,25.51
2022-08-05T19:21:27.707Z,25.31
2022-08-05T19:24:06.597Z,25.15
2022-08-05T19:26:54.673Z,25.10
2022-08-05T19:29:26.552Z,24.90
2022-08-05T19:32:03.520Z,24.72
2022-08-05T19:34:34.414Z,24.53
2022-08-05T19:37:02.549Z,24.42
2022-08-05T19:39:30.564Z,24.47
2022-08-05T19:42:08.144Z,24.45
2022-08-05T19:44:45.342Z,24.25
2022-08-05T19:47:16.275Z,24.16
2022-08-05T19:49:47.977Z,24.03
2022-08-05T19:52:30.217Z,24.14
2022-08-05T19:55:00.487Z,24.14
2022-08-05T19:58:00.530Z,24.12
2022-08-05T20:00:23.611Z,23.97
2022-08-05T20:02:52.532Z,23.86
2022-08-05T20:05:24.108Z,23.77
2022-08-05T20:07:57.700Z,23.69
2022-08-05T20:10:27.220Z,23.57
2022-08-05T20:12:55.279Z,23.45
2022-08-05T20:15:52.050Z,23.37
2022-08-05T20:18:33.534Z,23.26
2022-08-05T20:21:00.841Z,23.33
2022-08-05T20:23:39.988Z,23.26
2022-08-05T20:26:17.673Z,23.33
2022-08-05T20:28:48.451Z,23.38
2022-08-05T20:31:16.979Z,23.32
2022-08-05T20:33:45.449Z,23.30
2022-08-05T20:36:16.357Z,23.22
2022-08-05T20:38:54.098Z,23.10
2022-08-05T20:41:44.007Z,23.08
2022-08-05T20:44:17.138Z,23.03
2022-08-05T20:46:46.633Z,23.03
2022-08-05T20:49:15.176Z,23.02
2022-08-05T20:51:54.171Z,23.05
2022-08-05T20:54:22.328Z,22.98
2022-08-05T20:56:50.100Z,22.96
2022-08-05T20:59:27.040Z,22.92
2022-08-05T21:02:06.809Z,22.92
2022-08-05T21:04:35.122Z,22.94
2022-08-05T21:07:08.909Z,22.93
2022-08-05T21:09:37.256Z,22.95
2022-08-05T21:12:21.562Z,22.97
2022-08-05T21:14:54.319Z,22.98
2022-08-05T21:17:25.610Z,22.99
2022-08-05T21:19:56.475Z,22.93
2022-08-05T21:22:28.148Z,22.94
2022-08-05T21:24:56.410Z,22.99
2022-08-05T21:27:27.213Z,22.94
2022-08-05T21:29:56.129Z,22.83
2022-08-05T21:32:27.069Z,22.78
2022-08-05T21:35:08.928Z,22.64
2022-08-05T21:37:47.627Z,22.52
2022-08-05T21:40:23.204Z,22.53
2022-08-05T21:42:52.672Z,22.51
2022-08-05T21:45:24.517Z,22.44
2022-08-05T21:48:08.051Z,22.43
2022-08-05T21:50:37.348Z,22.42
2022-08-05T21:53:16.126Z,22.35
2022-08-05T21:56:05.016Z,22.32
2022-08-05T21:58:33.922Z,22.30
2022-08-05T22:01:02.372Z,22.29
2022-08-05T22:03:52.464Z,22.18
2022-08-05T22:06:23.007Z,22.21
2022-08-05T22:08:53.181Z,22.14
2022-08-05T22:11:34.771Z,22.07
2022-08-05T22:14:19.385Z,21.79
2022-08-05T22:16:53.046Z,21.69
2022-08-05T22:20:00.867Z,21.66
2022-08-05T22:22:15.470Z,21.61
2022-08-05T22:25:02.927Z,21.66
2022-08-05T22:28:09.953Z,21.60
2022-08-05T22:30:32.183Z,21.57
2022-08-05T22:33:00.760Z,21.55
2022-08-05T22:35:31.226Z,21.61
2022-08-05T22:38:16.373Z,21.49
2022-08-05T22:40:49.950Z,21.54
2022-08-05T22:43:36.183Z,21.43
2022-08-05T22:46:13.265Z,21.36
2022-08-05T22:48:42.181Z,21.16
2022-08-05T22:51:16.085Z,20.86
2022-08-05T22:53:52.028Z,20.78
2022-08-05T22:56:30.076Z,20.73
2022-08-05T22:59:47.356Z,20.75
2022-08-05T23:02:05.847Z,20.82
2022-08-05T23:04:35.600Z,20.89
2022-08-05T23:07:04.170Z,20.92
2022-08-05T23:09:58.400Z,20.97
2022-08-05T23:12:24.812Z,20.96
2022-08-05T23:14:52.913Z,20.99
2022-08-05T23:17:34.249Z,21.00
2022-08-05T23:20:10.487Z,20.71
2022-08-05T23:22:47.788Z,20.52
2022-08-05T23:25:53.627Z,20.40
2022-08-05T23:28:07.691Z,20.39
2022-08-05T23:30:40.417Z,20.41
2022-08-05T23:33:16.113Z,20.31
2022-08-05T23:35:51.642Z,20.34
2022-08-05T23:38:19.514Z,20.21
2022-08-05T23:40:50.009Z,20.01
2022-08-05T23:43:25.229Z,19.93
2022-08-05T23:46:21.392Z,19.96
2022-08-05T23:49:00.412Z,19.90
2022-08-05T23:51:54.142Z,19.87
2022-08-05T23:54:26.490Z,19.80
2022-08-05T23:57:03.841Z,19.88
